Aegean Pride — ELXK8 — position and weather

sailwx.info

Track history (hours):
 
Tides and Currents Weather Stations Pressure Air Temp Water Temp Dewpoint Dewpoint Depression Visibility Wind Speed Wind Dir Waves Ship Positions

Aegean Pride

Last reported at 2016-May-17 15:32 UTC. Time now 2016-Jul-01 02:51 UTC.
Position N 02°15' E 101°55'.
Warning: this ship's position is 44 days out of date.

Length 244 m; draft 8.2 m.

Type: Ship. MMSI: 636011186.

Date/timePositionNaut miles runAvg speedWind from/ knotsBaromVisibWave heightAir tempDewpointWater temp
2016-May-17 15:32N 02°15' E 101°55'1413.7
2016-May-17 14:31N 02°06' E 102°06'1313.2
2016-May-17 13:33N 01°58' E 102°16'1312.7
2016-May-17 12:33N 01°52' E 102°27'1412.2
2016-May-17 11:26N 01°47' E 102°39'6212.6
2016-May-17 06:32N 01°13' E 103°31'1212.6
2016-May-17 05:33N 01°09' E 103°43'1110.7
2016-May-17 04:33N 01°13' E 103°53'1211.9
2016-May-17 03:33N 01°16' E 104°05'  
2016-May-13 20:23N 01°15' E 104°06'1011.6
2016-May-13 19:33N 01°16' E 103°57'2 2.3
2016-May-13 18:33N 01°16' E 103°55'0 0.1
2016-May-13 17:30N 01°16' E 103°54'0 0.0
2016-May-13 15:27N 01°16' E 103°54'0 0.0
2016-May-13 14:33N 01°16' E 103°54'0 0.1
2016-May-13 13:30N 01°16' E 103°55'0 0.1
2016-May-13 12:24N 01°16' E 103°55'0 0.1
2016-May-13 11:33N 01°16' E 103°55'0 0.0
2016-May-13 10:33N 01°16' E 103°55'0 0.0
2016-May-13 09:03N 01°16' E 103°55'0 0.2
2016-May-13 08:33N 01°16' E 103°55'0 0.1
2016-May-13 07:30N 01°16' E 103°54'0 0.1
2016-May-13 06:30N 01°16' E 103°54'0 0.1
2016-May-13 05:33N 01°16' E 103°54'0 0.1
2016-May-13 04:33N 01°16' E 103°55'0 0.1
2016-May-13 03:24N 01°16' E 103°55'0 0.1
2016-May-13 02:33N 01°16' E 103°55'0 0.0
2016-May-13 01:33N 01°16' E 103°55'0 0.0
2016-May-13 00:33N 01°16' E 103°55'0 0.0
2016-May-12 23:27N 01°16' E 103°55'0 0.0
2016-May-12 22:24N 01°16' E 103°55'0 0.0
2016-May-12 21:33N 01°16' E 103°55'0 0.0
2016-May-12 20:33N 01°16' E 103°55'0 0.1
2016-May-12 19:21N 01°16' E 103°55'0 0.2
2016-May-12 18:33N 01°16' E 103°54'0 0.0
2016-May-12 17:12N 01°16' E 103°54'0 0.0
2016-May-12 16:33N 01°16' E 103°54'0 0.0
2016-May-12 15:33N 01°16' E 103°54'0 0.0
2016-May-12 14:33N 01°16' E 103°54'0 0.0
2016-May-12 13:33N 01°16' E 103°54'0 0.0
2016-May-12 12:33N 01°16' E 103°54'0 0.0
2016-May-12 11:33N 01°16' E 103°54'0 0.1
2016-May-12 10:33N 01°16' E 103°54'0 0.1
2016-May-12 09:33N 01°16' E 103°54'0 0.1
2016-May-12 08:33N 01°16' E 103°55'2 2.2
2016-May-12 07:34N 01°14' E 103°53'9 9.5
2016-May-12 06:33N 01°14' E 103°44'2 2.1
2016-May-12 05:29N 01°14' E 103°42'0 0.0
2016-May-12 04:23N 01°14' E 103°42'0 0.0
2016-May-12 03:29N 01°14' E 103°42'0 0.0
2016-May-12 02:29N 01°14' E 103°42'0 0.0
2016-May-12 01:11N 01°14' E 103°42'0 0.0
2016-May-12 00:17N 01°14' E 103°42'0 0.0
2016-May-11 23:11N 01°14' E 103°42'0 0.0
2016-May-11 22:32N 01°14' E 103°42'0 0.0
2016-May-11 20:26N 01°14' E 103°42'0 0.0
2016-May-11 19:20N 01°14' E 103°42'0 0.0
2016-May-11 18:26N 01°14' E 103°42'0 0.0
2016-May-11 17:20N 01°14' E 103°42'0 0.0
2016-May-11 16:26N 01°14' E 103°42'0 0.0
2016-May-11 10:11N 01°14' E 103°42'0 0.0
2016-May-11 09:29N 01°14' E 103°42'0 0.0
2016-May-11 07:32N 01°14' E 103°42'0 0.0
2016-May-11 06:32N 01°14' E 103°42'0 0.0
2016-May-11 04:32N 01°14' E 103°42'0 0.0
2016-May-11 02:29N 01°14' E 103°42'0 0.0
2016-May-11 01:29N 01°14' E 103°42'0 0.0
2016-May-11 00:32N 01°14' E 103°42'0 0.0
2016-May-10 23:32N 01°14' E 103°42'0 0.0
2016-May-10 22:26N 01°14' E 103°42'0 0.0
2016-May-10 21:29N 01°14' E 103°42'0 0.0
2016-May-10 20:26N 01°14' E 103°42'0 0.0
2016-May-10 19:26N 01°14' E 103°42'0 0.0
2016-May-10 18:33N 01°14' E 103°42'1 0.8
2016-May-10 17:34N 01°14' E 103°41'1 1.3
2016-May-10 16:24N 01°12' E 103°41'0 0.0
2016-May-10 15:33N 01°12' E 103°41'0 0.0
2016-May-10 14:27N 01°12' E 103°41'0 0.0
2016-May-10 13:21N 01°12' E 103°41'0 0.0
2016-May-10 11:24N 01°12' E 103°41'0 0.1
2016-May-10 10:33N 01°12' E 103°41'4 4.2
2016-May-10 09:30N 01°14' E 103°45'0 0.0
2016-May-10 07:33N 01°14' E 103°45'0 0.0
2016-May-10 06:33N 01°14' E 103°45'0 0.0
2016-May-10 05:24N 01°14' E 103°45'0 0.0
2016-May-10 01:12N 01°14' E 103°45'0 0.0
2016-May-09 22:24N 01°14' E 103°45'0 0.0
2016-May-09 21:21N 01°14' E 103°45'0 0.0
2016-May-09 20:33N 01°14' E 103°45'0 0.0
2016-May-09 19:24N 01°14' E 103°45'0 0.0
2016-May-09 18:27N 01°14' E 103°45'0 0.0
2016-May-09 15:27N 01°14' E 103°45'0 0.0
2016-May-09 14:15N 01°14' E 103°45'0 0.0
2016-May-09 13:33N 01°14' E 103°45'0 0.0
2016-May-09 12:27N 01°14' E 103°45'0 0.0
2016-May-09 11:30N 01°14' E 103°45'0 0.0
2016-May-09 10:24N 01°14' E 103°45'0 0.0
2016-May-09 09:33N 01°14' E 103°45'0 0.0
2016-May-09 08:33N 01°14' E 103°45'0 0.0
2016-May-09 07:30N 01°14' E 103°45'0 0.0
2016-May-09 06:33N 01°14' E 103°45'0 0.0
2016-May-09 05:30N 01°14' E 103°45'0 0.0
2016-May-09 04:27N 01°14' E 103°45'0 0.0
2016-May-09 03:15N 01°14' E 103°45'0 0.0
2016-May-09 02:27N 01°14' E 103°45'0 0.0
2016-May-09 01:30N 01°14' E 103°45'0 0.0
2016-May-09 00:30N 01°14' E 103°45'0 0.0
2016-May-08 23:33N 01°14' E 103°45'0 0.0
2016-May-08 22:03N 01°14' E 103°45'0 0.0
2016-May-08 20:30N 01°14' E 103°45'0 0.0
2016-May-08 19:18N 01°14' E 103°45'0 0.0
2016-May-08 18:12N 01°14' E 103°45'0 0.0
2016-May-08 16:30N 01°14' E 103°45'0 0.0
2016-May-08 15:24N 01°14' E 103°45'0 0.0
2016-May-08 13:30N 01°14' E 103°45'0 0.0
2016-May-08 12:33N 01°14' E 103°45'0 0.0
2016-May-08 11:21N 01°14' E 103°45'0 0.0
2016-May-08 10:30N 01°14' E 103°45'0 0.0
2016-May-08 08:30N 01°14' E 103°45'0 0.0
2016-May-08 07:30N 01°14' E 103°45'0 0.0
2016-May-08 06:33N 01°14' E 103°45'0 0.0
2016-May-08 05:21N 01°14' E 103°45'0 0.0
2016-May-08 04:24N 01°14' E 103°45'0 0.0
2016-May-08 03:30N 01°14' E 103°45'0 0.0
2016-May-08 02:24N 01°14' E 103°45'0 0.0
2016-May-08 01:33N 01°14' E 103°45'0 0.0
2016-May-08 00:33N 01°14' E 103°45'2 2.2
2016-May-07 23:33N 01°14' E 103°43'4 3.5
2016-May-07 22:33N 01°10' E 103°42'0 0.1
2016-May-07 21:28N 01°11' E 103°43'0 0.0
2016-May-07 20:25N 01°11' E 103°43'0 0.0
2016-May-07 19:25N 01°11' E 103°43'0 0.0
2016-May-07 18:28N 01°11' E 103°43'0 0.0
2016-May-07 17:31N 01°11' E 103°43'0 0.0
2016-May-07 16:31N 01°11' E 103°43'  
Track history (hours):
 
Tides and Currents Weather Stations Pressure Air Temp Water Temp Dewpoint Dewpoint Depression Visibility Wind Speed Wind Dir Waves Ship Positions

Aegean Pride

Last reported at 2016-May-17 15:32 UTC. Time now 2016-Jul-01 02:51 UTC.
Position N 02°15' E 101°55'.
Warning: this ship's position is 44 days out of date.

Length 244 m; draft 8.2 m.

Type: Ship. MMSI: 636011186.

Date/timePositionNaut miles runAvg speedWind from/ knotsBaromVisibWave heightAir tempDewpointWater temp
2016-May-17 15:32N 02°15' E 101°55'1413.7
2016-May-17 14:31N 02°06' E 102°06'1313.2
2016-May-17 13:33N 01°58' E 102°16'1312.7
2016-May-17 12:33N 01°52' E 102°27'1412.2
2016-May-17 11:26N 01°47' E 102°39'6212.6
2016-May-17 06:32N 01°13' E 103°31'1212.6
2016-May-17 05:33N 01°09' E 103°43'1110.7
2016-May-17 04:33N 01°13' E 103°53'1211.9
2016-May-17 03:33N 01°16' E 104°05'  
2016-May-13 20:23N 01°15' E 104°06'1011.6
2016-May-13 19:33N 01°16' E 103°57'2 2.3
2016-May-13 18:33N 01°16' E 103°55'0 0.1
2016-May-13 17:30N 01°16' E 103°54'0 0.0
2016-May-13 15:27N 01°16' E 103°54'0 0.0
2016-May-13 14:33N 01°16' E 103°54'0 0.1
2016-May-13 13:30N 01°16' E 103°55'0 0.1
2016-May-13 12:24N 01°16' E 103°55'0 0.1
2016-May-13 11:33N 01°16' E 103°55'0 0.0
2016-May-13 10:33N 01°16' E 103°55'0 0.0
2016-May-13 09:03N 01°16' E 103°55'0 0.2
2016-May-13 08:33N 01°16' E 103°55'0 0.1
2016-May-13 07:30N 01°16' E 103°54'0 0.1
2016-May-13 06:30N 01°16' E 103°54'0 0.1
2016-May-13 05:33N 01°16' E 103°54'0 0.1
2016-May-13 04:33N 01°16' E 103°55'0 0.1
2016-May-13 03:24N 01°16' E 103°55'0 0.1
2016-May-13 02:33N 01°16' E 103°55'0 0.0
2016-May-13 01:33N 01°16' E 103°55'0 0.0
2016-May-13 00:33N 01°16' E 103°55'0 0.0
2016-May-12 23:27N 01°16' E 103°55'0 0.0
2016-May-12 22:24N 01°16' E 103°55'0 0.0
2016-May-12 21:33N 01°16' E 103°55'0 0.0
2016-May-12 20:33N 01°16' E 103°55'0 0.1
2016-May-12 19:21N 01°16' E 103°55'0 0.2
2016-May-12 18:33N 01°16' E 103°54'0 0.0
2016-May-12 17:12N 01°16' E 103°54'0 0.0
2016-May-12 16:33N 01°16' E 103°54'0 0.0
2016-May-12 15:33N 01°16' E 103°54'0 0.0
2016-May-12 14:33N 01°16' E 103°54'0 0.0
2016-May-12 13:33N 01°16' E 103°54'0 0.0
2016-May-12 12:33N 01°16' E 103°54'0 0.0
2016-May-12 11:33N 01°16' E 103°54'0 0.1
2016-May-12 10:33N 01°16' E 103°54'0 0.1
2016-May-12 09:33N 01°16' E 103°54'0 0.1
2016-May-12 08:33N 01°16' E 103°55'2 2.2
2016-May-12 07:34N 01°14' E 103°53'9 9.5
2016-May-12 06:33N 01°14' E 103°44'2 2.1
2016-May-12 05:29N 01°14' E 103°42'0 0.0
2016-May-12 04:23N 01°14' E 103°42'0 0.0
2016-May-12 03:29N 01°14' E 103°42'0 0.0
2016-May-12 02:29N 01°14' E 103°42'0 0.0
2016-May-12 01:11N 01°14' E 103°42'0 0.0
2016-May-12 00:17N 01°14' E 103°42'0 0.0
2016-May-11 23:11N 01°14' E 103°42'0 0.0
2016-May-11 22:32N 01°14' E 103°42'0 0.0
2016-May-11 20:26N 01°14' E 103°42'0 0.0
2016-May-11 19:20N 01°14' E 103°42'0 0.0
2016-May-11 18:26N 01°14' E 103°42'0 0.0
2016-May-11 17:20N 01°14' E 103°42'0 0.0
2016-May-11 16:26N 01°14' E 103°42'0 0.0
2016-May-11 10:11N 01°14' E 103°42'0 0.0
2016-May-11 09:29N 01°14' E 103°42'0 0.0
2016-May-11 07:32N 01°14' E 103°42'0 0.0
2016-May-11 06:32N 01°14' E 103°42'0 0.0
2016-May-11 04:32N 01°14' E 103°42'0 0.0
2016-May-11 02:29N 01°14' E 103°42'0 0.0
2016-May-11 01:29N 01°14' E 103°42'0 0.0
2016-May-11 00:32N 01°14' E 103°42'0 0.0
2016-May-10 23:32N 01°14' E 103°42'0 0.0
2016-May-10 22:26N 01°14' E 103°42'0 0.0
2016-May-10 21:29N 01°14' E 103°42'0 0.0
2016-May-10 20:26N 01°14' E 103°42'0 0.0
2016-May-10 19:26N 01°14' E 103°42'0 0.0
2016-May-10 18:33N 01°14' E 103°42'1 0.8
2016-May-10 17:34N 01°14' E 103°41'1 1.3
2016-May-10 16:24N 01°12' E 103°41'0 0.0
2016-May-10 15:33N 01°12' E 103°41'0 0.0
2016-May-10 14:27N 01°12' E 103°41'0 0.0
2016-May-10 13:21N 01°12' E 103°41'0 0.0
2016-May-10 11:24N 01°12' E 103°41'0 0.1
2016-May-10 10:33N 01°12' E 103°41'4 4.2
2016-May-10 09:30N 01°14' E 103°45'0 0.0
2016-May-10 07:33N 01°14' E 103°45'0 0.0
2016-May-10 06:33N 01°14' E 103°45'0 0.0
2016-May-10 05:24N 01°14' E 103°45'0 0.0
2016-May-10 01:12N 01°14' E 103°45'0 0.0
2016-May-09 22:24N 01°14' E 103°45'0 0.0
2016-May-09 21:21N 01°14' E 103°45'0 0.0
2016-May-09 20:33N 01°14' E 103°45'0 0.0
2016-May-09 19:24N 01°14' E 103°45'0 0.0
2016-May-09 18:27N 01°14' E 103°45'0 0.0
2016-May-09 15:27N 01°14' E 103°45'0 0.0
2016-May-09 14:15N 01°14' E 103°45'0 0.0
2016-May-09 13:33N 01°14' E 103°45'0 0.0
2016-May-09 12:27N 01°14' E 103°45'0 0.0
2016-May-09 11:30N 01°14' E 103°45'0 0.0
2016-May-09 10:24N 01°14' E 103°45'0 0.0
2016-May-09 09:33N 01°14' E 103°45'0 0.0
2016-May-09 08:33N 01°14' E 103°45'0 0.0
2016-May-09 07:30N 01°14' E 103°45'0 0.0
2016-May-09 06:33N 01°14' E 103°45'0 0.0
2016-May-09 05:30N 01°14' E 103°45'0 0.0
2016-May-09 04:27N 01°14' E 103°45'0 0.0
2016-May-09 03:15N 01°14' E 103°45'0 0.0
2016-May-09 02:27N 01°14' E 103°45'0 0.0
2016-May-09 01:30N 01°14' E 103°45'0 0.0
2016-May-09 00:30N 01°14' E 103°45'0 0.0
2016-May-08 23:33N 01°14' E 103°45'0 0.0
2016-May-08 22:03N 01°14' E 103°45'0 0.0
2016-May-08 20:30N 01°14' E 103°45'0 0.0
2016-May-08 19:18N 01°14' E 103°45'0 0.0
2016-May-08 18:12N 01°14' E 103°45'0 0.0
2016-May-08 16:30N 01°14' E 103°45'0 0.0
2016-May-08 15:24N 01°14' E 103°45'0 0.0
2016-May-08 13:30N 01°14' E 103°45'0 0.0
2016-May-08 12:33N 01°14' E 103°45'0 0.0
2016-May-08 11:21N 01°14' E 103°45'0 0.0
2016-May-08 10:30N 01°14' E 103°45'0 0.0
2016-May-08 08:30N 01°14' E 103°45'0 0.0
2016-May-08 07:30N 01°14' E 103°45'0 0.0
2016-May-08 06:33N 01°14' E 103°45'0 0.0
2016-May-08 05:21N 01°14' E 103°45'0 0.0
2016-May-08 04:24N 01°14' E 103°45'0 0.0
2016-May-08 03:30N 01°14' E 103°45'0 0.0
2016-May-08 02:24N 01°14' E 103°45'0 0.0
2016-May-08 01:33N 01°14' E 103°45'0 0.0
2016-May-08 00:33N 01°14' E 103°45'2 2.2
2016-May-07 23:33N 01°14' E 103°43'4 3.5
2016-May-07 22:33N 01°10' E 103°42'0 0.1
2016-May-07 21:28N 01°11' E 103°43'0 0.0
2016-May-07 20:25N 01°11' E 103°43'0 0.0
2016-May-07 19:25N 01°11' E 103°43'0 0.0
2016-May-07 18:28N 01°11' E 103°43'0 0.0
2016-May-07 17:31N 01°11' E 103°43'0 0.0
2016-May-07 16:31N 01°11' E 103°43'  

Dump ship's entire track history